OBBI Airport Information

Runway Information
Runway 12L Length 12979 ft width 197 ft
Elevation 6 ft Threshold 1000 ft Heading 123
Runway 30R Length 12979 ft Width 197 ft
Elevation 6 ft Threshold 1000 ft Heading 303
Runway 12R Length 8302 ft width 148 ft
Elevation 7 ft Threshold 1000 ft Heading 123
Runway 30L Length 8302 ft Width 148 ft
Elevation 6 ft Threshold 395 ft Heading 303
Airport Frequencies
Type APP Name APP Frequency 127.85 MHZ
Type ATIS Name ATIS Frequency 127.2 MHZ
Type GND Name GND Frequency 121.675 MHZ
Type OPS Name ATOC Frequency 32.175 MHZ
Type TWR Name TWR Frequency 118.5 MHZ
Airport Navaids
Type VOR-DME Name Bahrain Frequency 115300 KHZ
Type NDB Name Bahrain Frequency 395 KHZ
Airport Weather Information & NOTAM
ADDS - METARS form results

(1626 UTC 11 July 2020)
Data provider http://aviationweather.gov/metar/data/
 
METAR text: OBBI 111600Z 07003KT 040V100 CAVOK 36/22 Q0995 NOSIG
Conditions at: OBBI (BAHRAIN INTL ARP, BH) observed 1600 UTC 11 July 2020
Temperature: 36.0°C (97°F)
Dewpoint: 22.0°C (72°F) [RH = 45%]
Pressure (altimeter): 29.38 inches Hg (995.0 mb)
Winds: from the ENE (70 degrees) at 3 MPH (3 knots; 1.5 m/s)
Visibility: 6 or more miles (10+ km)
Ceiling: ceiling and visibility are OK
Clouds: unknown
Weather: no significant weather observed at this time

METAR text: OBBI 111530Z 07004KT CAVOK 37/22 Q0994 NOSIG
Conditions at: OBBI (BAHRAIN INTL ARP, BH) observed 1530 UTC 11 July 2020
Temperature: 37.0°C (99°F)
Dewpoint: 22.0°C (72°F) [RH = 42%]
Pressure (altimeter): 29.35 inches Hg (994.0 mb)
Winds: from the ENE (70 degrees) at 5 MPH (4 knots; 2.1 m/s)
Visibility: 6 or more miles (10+ km)
Ceiling: ceiling and visibility are OK
Clouds: unknown
Weather: no significant weather observed at this time

Forecast for: OBBI (BAHRAIN INTL ARP, BH)
Text: TAF OBBI 111100Z 1112/1218 VRB05KT CAVOK
Forecast period: 1200 UTC 11 July 2020 to 1800 UTC 12 July 2020
Forecast type: FROM: standard forecast or significant change
Winds: variable direction winds at 6 MPH (5 knots; 2.6 m/s)
Visibility: 6 or more miles 10+ km)
Ceiling: unknown
Clouds: missing
Weather: NSW  (no significant weather)
Text: PROB30
Forecast period: 0000 to 0500 UTC 12 July 2020
Forecast type: TEMPORARY: The following changes expected for less than half the time period
Visibility: 3 miles (5 km)
Ceiling: unknown
Clouds: missing
Weather: HZ  (haze)